This is the latest recevied weather packets stored in our database for station/object DG6HD-13. If no packets are shown the sender has not sent any weather packets the latest 10 day(s).
| Time | Temp. | Humidity | Pressure | Rain* | Wind** | Luminosity | Snow |
|---|---|---|---|---|---|---|---|
| 1778125541 | 8.89° C | 53% | 1013.8 hPa | - | - | - | - |
| 1778124640 | 6.67° C | 58% | 1013.5 hPa | - | - | - | - |
| 1778123740 | 7.22° C | 59% | 1013.6 hPa | - | - | - | - |
| 1778122839 | 7.22° C | 57% | 1013.5 hPa | - | - | - | - |
| 1778121938 | 9.44° C | 53% | 1013.4 hPa | - | - | - | - |
| 1778121037 | 6.67° C | 59% | 1013.4 hPa | - | - | - | - |
| 1778120136 | 7.22° C | 59% | 1013.2 hPa | - | - | - | - |
| 1778119235 | 7.22° C | 58% | 1013.4 hPa | - | - | - | - |
| 1778118335 | 8.89° C | 54% | 1013 hPa | - | - | - | - |
| 1778117434 | 7.22° C | 59% | 1013.1 hPa | - | - | - | - |
| 1778116533 | 7.22° C | 59% | 1013 hPa | - | - | - | - |
| 1778115632 | 7.22° C | 59% | 1012.7 hPa | - | - | - | - |
| 1778114731 | 7.22° C | 58% | 1012.6 hPa | - | - | - | - |
| 1778113830 | 8.33° C | 56% | 1012.6 hPa | - | - | - | - |
| 1778112929 | 7.22° C | 59% | 1012.5 hPa | - | - | - | - |
| 1778112029 | 7.22° C | 59% | 1012.5 hPa | - | - | - | - |
| 1778111128 | 7.22° C | 59% | 1012.5 hPa | - | - | - | - |
| 1778110227 | 7.22° C | 59% | 1012.7 hPa | - | - | - | - |
| 1778109326 | 7.22° C | 59% | 1012.6 hPa | - | - | - | - |
| 1778108425 | 7.78° C | 59% | 1012.4 hPa | - | - | - | - |
| 1778107525 | 7.78° C | 58% | 1012.3 hPa | - | - | - | - |
| 1778106624 | 8.89° C | 54% | 1012.1 hPa | - | - | - | - |
| 1778105723 | 7.22° C | 59% | 1012.1 hPa | - | - | - | - |
| 1778104822 | 7.22° C | 59% | 1012.2 hPa | - | - | - | - |
| 1778103921 | 7.22° C | 59% | 1012 hPa | - | - | - | - |
* Rain since midnight (hover to see other rain measurements)
** Current wind speed in m/s (hover to see current wind gust speed)